Time;durP1;ratioP1;P1;durP2;ratioP2;P2;SDS_P1;SDS_P2;PMS_P1;PMS_P2;Temp;Humidity;BMP_temperature;BMP_pressure;BME280_temperature;BME280_humidity;BME280_pressure;Samples;Min_cycle;Max_cycle;Signal;HPM_P1;HPM_P2
2021/12/18 00:00:11;;;;;;;20.63;13.10;;;7.60;99.90;;;;;;5053385;28;20194;-77
2021/12/18 00:02:36;;;;;;;21.00;12.97;;;7.60;99.90;;;;;;5035343;28;20219;-77
2021/12/18 00:05:02;;;;;;;18.93;12.97;;;7.60;99.90;;;;;;5053056;28;20328;-76
2021/12/18 00:07:28;;;;;;;18.77;12.07;;;7.60;99.90;;;;;;5053236;28;20197;-76
2021/12/18 00:09:54;;;;;;;20.00;12.13;;;7.60;99.90;;;;;;5035356;28;20191;-76
2021/12/18 00:12:19;;;;;;;22.67;14.97;;;7.60;99.90;;;;;;5053886;28;20530;-76
2021/12/18 00:14:45;;;;;;;18.53;12.20;;;7.60;99.90;;;;;;5053157;28;20214;-76
2021/12/18 00:17:10;;;;;;;17.37;11.63;;;7.60;99.90;;;;;;5035127;28;20282;-77
2021/12/18 00:19:36;;;;;;;14.83;10.87;;;7.60;99.90;;;;;;5053241;28;20639;-76
2021/12/18 00:22:02;;;;;;;16.90;11.10;;;7.60;99.90;;;;;;5053073;28;20187;-76
2021/12/18 00:24:28;;;;;;;19.10;10.90;;;7.60;99.90;;;;;;5053853;28;20223;-75
2021/12/18 00:26:54;;;;;;;17.00;11.23;;;7.60;99.90;;;;;;5098046;23;20230;-78
2021/12/18 00:29:20;;;;;;;16.57;11.47;;;7.60;99.90;;;;;;5059876;28;20179;-79
2021/12/18 00:31:45;;;;;;;18.70;11.33;;;7.60;99.90;;;;;;5077362;28;20177;-78
2021/12/18 00:34:11;;;;;;;21.03;13.67;;;7.60;99.90;;;;;;5059549;28;20183;-79
2021/12/18 00:36:36;;;;;;;19.70;12.90;;;7.60;99.90;;;;;;5077545;28;20207;-78
2021/12/18 00:39:03;;;;;;;24.43;14.20;;;7.60;99.90;;;;;;5058960;28;20735;-78
2021/12/18 00:44:01;;;;;;;23.37;14.07;;;7.60;99.90;;;;;;5077653;28;20207;-78
2021/12/18 00:46:36;;;;;;;26.73;15.87;;;7.60;99.90;;;;;;5077746;28;20207;-78
2021/12/18 00:49:03;;;;;;;27.27;16.10;;;7.60;99.90;;;;;;5059750;28;20175;-79
2021/12/18 00:51:29;;;;;;;20.93;13.57;;;7.60;99.90;;;;;;5058891;28;20252;-79
2021/12/18 00:53:55;;;;;;;22.70;14.63;;;7.60;99.90;;;;;;5059324;28;20645;-79
2021/12/18 00:56:22;;;;;;;23.00;12.93;;;7.60;99.90;;;;;;5058676;28;20214;-78
2021/12/18 00:58:49;;;;;;;17.80;12.00;;;7.60;99.90;;;;;;5060522;28;20191;-78
2021/12/18 01:01:15;;;;;;;19.67;11.97;;;7.60;99.90;;;;;;5062361;28;20668;-78
2021/12/18 01:03:42;;;;;;;16.07;11.13;;;7.70;99.90;;;;;;5079702;28;20178;-78
2021/12/18 01:06:08;;;;;;;28.17;13.50;;;7.70;99.90;;;;;;5079708;28;20207;-78
2021/12/18 01:08:34;;;;;;;21.60;12.57;;;7.60;99.90;;;;;;5079391;28;20181;-78
2021/12/18 01:14:03;;;;;;;25.70;13.83;;;7.60;99.90;;;;;;5078561;28;20175;-78
2021/12/18 01:16:41;;;;;;;30.77;15.83;;;7.60;99.90;;;;;;5078118;28;20687;-78
2021/12/18 01:24:28;;;;;;;26.67;15.60;;;7.60;99.90;;;;;;5078662;28;20167;-78
2021/12/18 01:26:54;;;;;;;34.70;17.47;;;7.60;99.90;;;;;;5077582;28;20225;-78
2021/12/18 01:29:19;;;;;;;38.10;20.43;;;7.60;99.90;;;;;;5078404;28;20186;-78
2021/12/18 01:31:45;;;;;;;30.57;16.43;;;7.70;99.90;;;;;;5078706;28;20182;-78
2021/12/18 01:34:10;;;;;;;34.33;17.37;;;7.70;99.90;;;;;;5059820;28;20550;-78
2021/12/18 01:36:36;;;;;;;34.43;20.70;;;7.60;99.90;;;;;;5077909;28;20584;-78
2021/12/18 01:39:03;;;;;;;45.80;22.53;;;7.70;99.90;;;;;;5060384;28;20653;-79
2021/12/18 01:41:37;;;;;;;33.87;19.07;;;7.70;99.90;;;;;;5079241;28;20177;-78
2021/12/18 01:47:07;;;;;;;36.53;19.27;;;7.70;99.90;;;;;;5078768;28;20209;-78
2021/12/18 01:52:21;;;;;;;40.30;21.23;;;7.70;99.90;;;;;;5079252;28;20171;-78
2021/12/18 01:54:47;;;;;;;41.33;21.80;;;7.70;99.90;;;;;;5060032;28;20305;-78
2021/12/18 01:57:13;;;;;;;37.20;20.47;;;7.70;99.90;;;;;;5058870;28;20285;-78
2021/12/18 01:59:46;;;;;;;39.17;19.23;;;7.70;99.90;;;;;;5078540;28;20186;-79
2021/12/18 02:02:12;;;;;;;39.40;18.87;;;7.70;99.90;;;;;;5060747;28;20750;-79
2021/12/18 02:04:37;;;;;;;38.43;20.03;;;7.70;99.90;;;;;;5078579;28;20180;-79
2021/12/18 02:07:04;;;;;;;44.90;20.63;;;7.70;99.90;;;;;;5078311;28;20209;-79
2021/12/18 02:09:48;;;;;;;35.67;20.37;;;7.70;99.90;;;;;;5078235;28;20177;-79
2021/12/18 02:12:16;;;;;;;36.47;21.23;;;7.70;99.90;;;;;;5058939;28;20178;-80
2021/12/18 02:19:35;;;;;;;42.67;21.37;;;7.70;99.90;;;;;;5058966;28;20656;-79
2021/12/18 02:20:50;;;;;;;44.17;23.83;;;7.70;99.90;;;;;;5076574;28;20190;-78
2021/12/18 02:23:09;;;;;;;52.33;25.00;;;7.70;99.90;;;;;;5074764;28;20233;-78
2021/12/18 02:25:36;;;;;;;49.80;25.23;;;7.70;99.90;;;;;;5076739;28;20223;-78
2021/12/18 02:28:06;;;;;;;45.93;23.53;;;7.70;99.90;;;;;;5075324;28;20175;-78
2021/12/18 02:30:33;;;;;;;46.63;23.73;;;7.70;99.90;;;;;;5074763;28;20175;-78
2021/12/18 02:32:59;;;;;;;50.47;24.10;;;7.70;99.90;;;;;;5074903;28;20199;-78
2021/12/18 02:35:35;;;;;;;42.97;22.63;;;7.70;99.90;;;;;;5075249;28;20264;-79
2021/12/18 02:38:12;;;;;;;37.77;21.10;;;7.70;99.90;;;;;;5076904;28;20163;-78
2021/12/18 02:40:54;;;;;;;37.33;21.80;;;7.70;99.90;;;;;;5074577;28;20215;-79
2021/12/18 02:43:37;;;;;;;43.83;23.33;;;7.70;99.90;;;;;;5056766;28;20197;-78
2021/12/18 02:46:07;;;;;;;39.93;22.17;;;7.70;99.90;;;;;;5074261;28;20687;-78
2021/12/18 02:48:40;;;;;;;42.33;23.43;;;7.70;99.90;;;;;;5074520;28;20211;-78
2021/12/18 02:51:11;;;;;;;42.87;22.73;;;7.70;99.90;;;;;;5074129;28;20191;-77
2021/12/18 02:53:40;;;;;;;41.50;21.33;;;7.70;99.90;;;;;;5074224;28;20178;-77
2021/12/18 02:56:09;;;;;;;43.93;21.93;;;7.70;99.90;;;;;;5074002;28;20202;-77
2021/12/18 02:58:45;;;;;;;41.53;21.53;;;7.70;99.90;;;;;;5056518;28;20189;-77
2021/12/18 03:01:14;;;;;;;40.23;21.83;;;7.70;99.90;;;;;;5073863;28;20174;-78
2021/12/18 03:03:41;;;;;;;39.80;21.90;;;7.70;99.90;;;;;;5056155;28;20187;-78
2021/12/18 03:06:22;;;;;;;36.33;21.10;;;7.70;99.90;;;;;;5073781;28;20206;-78
2021/12/18 03:22:45;;;;;;;36.50;20.03;;;7.70;99.90;;;;;;5073395;28;20187;-78
2021/12/18 03:25:08;;;;;;;36.07;20.87;;;7.60;99.90;;;;;;5073049;28;20229;-78
2021/12/18 03:27:34;;;;;;;37.03;20.17;;;7.70;99.90;;;;;;5073941;28;20221;-78
2021/12/18 03:29:59;;;;;;;36.67;20.10;;;7.70;99.90;;;;;;5055628;28;20265;-78
2021/12/18 03:32:26;;;;;;;37.03;19.17;;;7.70;99.90;;;;;;5055438;28;20561;-78
2021/12/18 03:34:52;;;;;;;34.07;19.17;;;7.60;99.90;;;;;;5073469;28;20680;-77
2021/12/18 03:37:18;;;;;;;33.30;18.37;;;7.60;99.90;;;;;;5073345;28;20179;-77
2021/12/18 03:39:45;;;;;;;32.60;17.40;;;7.70;99.90;;;;;;5073258;28;20191;-77
2021/12/18 03:42:11;;;;;;;31.83;17.57;;;7.70;99.90;;;;;;5055279;28;20247;-77
2021/12/18 03:44:37;;;;;;;30.07;17.30;;;7.60;99.90;;;;;;5073184;28;20175;-77
2021/12/18 03:47:04;;;;;;;30.60;16.13;;;7.60;99.90;;;;;;5073328;28;20209;-77
2021/12/18 03:49:29;;;;;;;34.30;17.53;;;7.60;99.90;;;;;;5073533;28;20202;-77
2021/12/18 03:51:55;;;;;;;31.67;16.27;;;7.60;99.90;;;;;;5073148;28;20217;-77
2021/12/18 03:54:21;;;;;;;30.90;16.63;;;7.70;99.90;;;;;;5073124;28;20171;-77
2021/12/18 03:56:47;;;;;;;30.13;15.73;;;7.60;99.90;;;;;;5072795;28;20256;-77
2021/12/18 03:59:12;;;;;;;32.60;16.57;;;7.60;99.90;;;;;;5054934;28;20219;-77
2021/12/18 04:01:38;;;;;;;34.17;16.13;;;7.60;99.90;;;;;;5073272;28;20186;-78
2021/12/18 04:04:05;;;;;;;30.17;16.43;;;7.60;99.90;;;;;;5055051;28;20194;-78
2021/12/18 04:06:31;;;;;;;29.07;16.00;;;7.70;99.90;;;;;;5054888;28;20218;-78
2021/12/18 04:08:57;;;;;;;28.77;15.03;;;7.70;99.90;;;;;;5054951;28;20189;-77
2021/12/18 04:11:23;;;;;;;28.60;14.63;;;7.60;99.90;;;;;;5054995;28;20656;-77
2021/12/18 04:13:49;;;;;;;27.00;15.37;;;7.60;99.90;;;;;;5054523;28;20740;-77
2021/12/18 04:16:15;;;;;;;26.87;14.23;;;7.60;99.90;;;;;;5072829;28;20210;-78
2021/12/18 04:18:40;;;;;;;25.23;14.40;;;7.60;99.90;;;;;;5072961;28;20186;-78
2021/12/18 04:21:07;;;;;;;25.77;14.93;;;7.60;99.90;;;;;;5054886;28;20229;-78
2021/12/18 04:23:32;;;;;;;27.73;14.60;;;7.60;99.90;;;;;;5073698;28;20190;-78
2021/12/18 04:25:58;;;;;;;27.63;15.70;;;7.60;99.90;;;;;;5054558;28;20296;-78
2021/12/18 04:28:24;;;;;;;27.77;14.70;;;7.60;99.90;;;;;;5054852;28;20187;-77
2021/12/18 04:30:50;;;;;;;26.57;14.17;;;7.70;99.90;;;;;;5073021;28;20525;-77
2021/12/18 04:33:16;;;;;;;23.17;12.93;;;7.60;99.90;;;;;;5073882;28;20673;-77
2021/12/18 04:35:42;;;;;;;23.20;13.17;;;7.70;99.90;;;;;;5076650;28;20209;-77
2021/12/18 04:38:08;;;;;;;24.23;13.67;;;7.60;99.90;;;;;;5076653;28;20194;-77
2021/12/18 04:40:35;;;;;;;26.13;13.10;;;7.70;99.90;;;;;;5058627;28;20190;-77
2021/12/18 04:43:02;;;;;;;22.50;13.43;;;7.60;99.90;;;;;;5076572;28;20179;-77
2021/12/18 04:45:28;;;;;;;23.67;13.90;;;7.60;99.90;;;;;;5076254;28;20206;-77
2021/12/18 04:47:55;;;;;;;22.70;12.87;;;7.60;99.90;;;;;;5058282;28;20256;-77
2021/12/18 04:50:21;;;;;;;26.10;13.60;;;7.60;99.90;;;;;;5076403;28;20548;-77
2021/12/18 04:52:47;;;;;;;24.20;13.40;;;7.60;99.90;;;;;;5058417;28;20664;-77
2021/12/18 04:55:12;;;;;;;22.40;12.27;;;7.60;99.90;;;;;;5076578;28;20194;-77
2021/12/18 04:57:38;;;;;;;25.30;13.20;;;7.60;99.90;;;;;;5076276;28;20671;-77
2021/12/18 05:00:06;;;;;;;25.50;13.50;;;7.60;99.90;;;;;;5076234;28;20182;-77
2021/12/18 05:02:36;;;;;;;22.57;12.60;;;7.60;99.90;;;;;;5057898;28;20194;-77
2021/12/18 05:05:03;;;;;;;24.93;13.53;;;7.60;99.90;;;;;;5075971;28;20230;-77
2021/12/18 05:07:29;;;;;;;27.80;14.77;;;7.60;99.90;;;;;;5058067;28;20671;-77
2021/12/18 05:09:55;;;;;;;24.87;13.90;;;7.60;99.90;;;;;;5075753;28;20186;-77
2021/12/18 05:12:20;;;;;;;27.47;14.10;;;7.60;99.90;;;;;;5057990;28;20183;-77
2021/12/18 05:14:46;;;;;;;25.43;14.67;;;7.60;99.90;;;;;;5076154;28;20201;-78
2021/12/18 05:17:11;;;;;;;24.20;12.87;;;7.60;99.90;;;;;;5058005;28;20183;-77
2021/12/18 05:19:37;;;;;;;25.83;13.60;;;7.60;99.90;;;;;;5058018;28;20215;-77
2021/12/18 05:22:04;;;;;;;27.60;13.40;;;7.60;99.90;;;;;;5057926;28;20564;-77
2021/12/18 05:24:30;;;;;;;24.70;14.20;;;7.60;99.90;;;;;;5057525;28;20198;-77
2021/12/18 05:26:55;;;;;;;30.57;15.17;;;7.60;99.90;;;;;;5075550;28;20577;-77
2021/12/18 05:29:21;;;;;;;23.37;13.93;;;7.60;99.90;;;;;;5057682;28;20226;-77
2021/12/18 05:31:47;;;;;;;30.27;15.23;;;7.60;99.90;;;;;;5057800;28;20188;-78
2021/12/18 05:34:20;;;;;;;28.53;14.90;;;7.60;99.90;;;;;;5057710;28;20229;-77
2021/12/18 05:39:22;;;;;;;30.43;15.10;;;7.60;99.90;;;;;;5075357;28;20220;-77
2021/12/18 05:41:50;;;;;;;31.87;15.43;;;7.60;99.90;;;;;;5075505;28;20179;-77
2021/12/18 05:44:20;;;;;;;28.47;14.83;;;7.60;99.90;;;;;;5074968;28;20213;-78
2021/12/18 05:46:46;;;;;;;24.57;14.27;;;7.50;99.90;;;;;;5075322;28;20314;-77
2021/12/18 05:49:12;;;;;;;27.73;15.37;;;7.60;99.90;;;;;;5057374;28;20218;-77
2021/12/18 05:51:38;;;;;;;28.70;15.73;;;7.60;99.90;;;;;;5075602;28;20206;-77
2021/12/18 05:54:04;;;;;;;29.67;15.30;;;7.60;99.90;;;;;;5075297;28;20660;-77
2021/12/18 05:56:30;;;;;;;30.70;15.87;;;7.60;99.90;;;;;;5074614;28;20202;-78
2021/12/18 05:58:57;;;;;;;33.33;16.10;;;7.60;99.90;;;;;;5057150;28;20187;-78
2021/12/18 06:01:22;;;;;;;31.03;14.97;;;7.60;99.90;;;;;;5057268;28;20190;-78
2021/12/18 06:03:48;;;;;;;33.03;15.47;;;7.60;99.90;;;;;;5075047;28;20175;-78
2021/12/18 06:06:14;;;;;;;29.13;15.13;;;7.60;99.90;;;;;;5056917;28;20211;-77
2021/12/18 06:08:42;;;;;;;34.30;15.80;;;7.60;99.90;;;;;;5074994;28;20181;-77
2021/12/18 06:11:13;;;;;;;37.80;15.67;;;7.60;99.90;;;;;;5057040;28;20182;-78
2021/12/18 06:13:40;;;;;;;37.33;16.37;;;7.60;99.90;;;;;;5074555;28;20177;-77
2021/12/18 06:16:06;;;;;;;35.47;17.53;;;7.60;99.90;;;;;;5056868;28;20206;-77
2021/12/18 06:18:36;;;;;;;38.30;17.13;;;7.60;99.90;;;;;;5056913;28;20186;-77
2021/12/18 06:21:03;;;;;;;36.33;17.93;;;7.60;99.90;;;;;;5074876;28;20175;-78
2021/12/18 06:23:29;;;;;;;38.30;17.43;;;7.60;99.90;;;;;;5074731;28;20234;-78
2021/12/18 06:25:56;;;;;;;35.53;16.97;;;7.60;99.90;;;;;;5072902;23;20203;-96
2021/12/18 06:28:21;;;;;;;42.17;18.33;;;7.60;99.90;;;;;;5084357;28;20216;-96
2021/12/18 06:30:48;;;;;;;49.97;19.23;;;7.60;99.90;;;;;;5084524;28;20176;-96
2021/12/18 06:33:25;;;;;;;;;;;;;;;;;;;;;
2021/12/18 06:35:51;;;;;;;43.63;18.33;;;7.60;99.90;;;;;;5101706;28;20142;-96
2021/12/18 06:38:16;;;;;;;45.10;18.80;;;7.50;99.90;;;;;;5101742;23;20700;-77
2021/12/18 06:40:42;;;;;;;44.73;18.40;;;7.50;99.90;;;;;;5055167;28;20575;-78
2021/12/18 06:43:07;;;;;;;48.30;19.53;;;7.60;99.90;;;;;;5054656;28;20176;-78
2021/12/18 06:45:33;;;;;;;43.17;19.10;;;7.60;99.90;;;;;;5054160;28;20679;-77
2021/12/18 06:47:59;;;;;;;49.33;18.63;;;7.50;99.90;;;;;;5054372;28;20180;-77
2021/12/18 06:50:24;;;;;;;40.83;17.70;;;7.60;99.90;;;;;;5054914;28;20174;-78
2021/12/18 06:52:50;;;;;;;41.83;18.37;;;7.60;99.90;;;;;;5054721;28;20636;-77
2021/12/18 06:55:16;;;;;;;40.33;17.03;;;7.60;99.90;;;;;;5053985;28;20176;-79
2021/12/18 06:57:42;;;;;;;45.47;19.20;;;7.60;99.90;;;;;;5036063;28;20195;-76
2021/12/18 07:00:11;;;;;;;41.80;17.83;;;7.60;99.90;;;;;;5053914;28;20184;-77
2021/12/18 07:02:37;;;;;;;49.57;19.20;;;7.60;99.90;;;;;;5034467;28;20748;-77
2021/12/18 07:05:03;;;;;;;58.00;20.67;;;7.50;99.90;;;;;;5016505;28;20188;-77
2021/12/18 07:07:28;;;;;;;50.10;20.33;;;7.60;99.90;;;;;;5016877;28;20242;-77
2021/12/18 07:09:54;;;;;;;44.23;19.67;;;7.60;99.90;;;;;;5044438;28;20184;-77
2021/12/18 07:12:19;;;;;;;50.50;20.17;;;7.60;99.90;;;;;;5054188;28;20213;-77
2021/12/18 07:14:45;;;;;;;42.73;18.87;;;7.60;99.90;;;;;;5054419;28;20262;-77
2021/12/18 07:17:10;;;;;;;50.10;20.50;;;7.60;99.90;;;;;;5054098;28;20279;-77
2021/12/18 07:19:36;;;;;;;50.30;20.23;;;7.60;99.90;;;;;;5053624;28;20184;-77
2021/12/18 07:22:02;;;;;;;48.67;19.60;;;7.60;99.90;;;;;;5053607;28;20191;-77
2021/12/18 07:24:28;;;;;;;45.17;19.63;;;7.60;99.90;;;;;;5053961;28;20182;-77
2021/12/18 07:26:54;;;;;;;46.87;19.67;;;7.60;99.90;;;;;;5053706;28;20706;-77
2021/12/18 07:29:20;;;;;;;43.90;18.53;;;7.60;99.90;;;;;;5035745;28;20179;-77
2021/12/18 07:31:45;;;;;;;45.47;19.27;;;7.60;99.90;;;;;;5054047;28;20659;-77
2021/12/18 07:34:11;;;;;;;47.17;18.67;;;7.60;99.90;;;;;;5053686;28;20245;-77
2021/12/18 07:36:37;;;;;;;51.80;19.23;;;7.60;99.90;;;;;;5035980;28;20214;-78
2021/12/18 07:39:03;;;;;;;53.47;19.97;;;7.60;99.90;;;;;;5035811;28;20199;-77
2021/12/18 07:41:29;;;;;;;47.37;19.13;;;7.60;99.90;;;;;;5036080;28;20184;-77
2021/12/18 07:43:54;;;;;;;49.93;19.10;;;7.60;99.90;;;;;;5036633;28;20706;-77
2021/12/18 07:46:20;;;;;;;45.30;18.33;;;7.60;99.90;;;;;;5054043;28;20207;-77
2021/12/18 07:48:45;;;;;;;47.40;18.37;;;7.60;99.90;;;;;;5054288;28;20723;-77
2021/12/18 07:51:11;;;;;;;45.07;18.60;;;7.60;99.90;;;;;;5036441;28;20229;-77
2021/12/18 07:53:37;;;;;;;41.93;17.77;;;7.60;99.90;;;;;;5054819;28;20198;-77
2021/12/18 07:56:04;;;;;;;46.47;19.03;;;7.60;99.90;;;;;;5035862;28;20330;-77
2021/12/18 07:58:30;;;;;;;48.93;19.07;;;7.60;99.90;;;;;;5054187;28;20179;-79
2021/12/18 08:00:56;;;;;;;41.17;17.57;;;7.60;99.90;;;;;;5036005;28;20184;-78
2021/12/18 08:03:21;;;;;;;50.00;18.30;;;7.60;99.90;;;;;;5053799;28;20665;-77
2021/12/18 08:05:47;;;;;;;43.80;17.70;;;7.60;99.90;;;;;;5053547;28;20703;-77
2021/12/18 08:08:13;;;;;;;38.83;15.97;;;7.60;99.90;;;;;;5035564;28;20183;-77
2021/12/18 08:10:38;;;;;;;43.47;16.60;;;7.60;99.90;;;;;;5036152;28;20237;-77
2021/12/18 08:13:04;;;;;;;37.70;16.27;;;7.60;99.90;;;;;;5053800;28;20185;-77
2021/12/18 08:15:30;;;;;;;37.80;16.30;;;7.60;99.90;;;;;;5053419;28;20204;-76
2021/12/18 08:17:57;;;;;;;38.87;16.07;;;7.60;99.90;;;;;;5053744;28;20760;-77
2021/12/18 08:20:23;;;;;;;38.57;16.60;;;7.60;99.90;;;;;;5053627;28;20175;-77
2021/12/18 08:22:49;;;;;;;43.37;17.13;;;7.60;99.90;;;;;;5035367;28;20198;-77
2021/12/18 08:25:14;;;;;;;39.73;16.83;;;7.60;99.90;;;;;;5053473;28;20228;-77
2021/12/18 08:27:40;;;;;;;42.80;17.50;;;7.70;99.90;;;;;;5054208;28;20637;-77
2021/12/18 08:30:06;;;;;;;38.53;16.20;;;7.70;99.90;;;;;;5054155;28;20576;-77
2021/12/18 08:32:32;;;;;;;40.87;16.83;;;7.70;99.90;;;;;;5054058;28;20620;-77
2021/12/18 08:34:57;;;;;;;43.00;16.53;;;7.70;99.90;;;;;;5053687;28;20211;-79
2021/12/18 08:37:23;;;;;;;41.57;14.87;;;7.70;99.90;;;;;;5053413;28;20202;-80
2021/12/18 08:39:49;;;;;;;39.60;17.37;;;7.70;99.90;;;;;;5035938;28;20184;-78
2021/12/18 08:42:14;;;;;;;43.90;17.60;;;7.70;99.90;;;;;;5036277;28;20184;-79
2021/12/18 08:44:40;;;;;;;46.13;16.23;;;7.70;99.90;;;;;;5053468;28;20176;-79
2021/12/18 08:47:06;;;;;;;41.43;17.03;;;7.70;99.90;;;;;;5053124;28;20580;-78
2021/12/18 08:49:32;;;;;;;42.07;17.07;;;7.70;99.90;;;;;;5035699;28;20240;-78
2021/12/18 08:51:57;;;;;;;43.87;17.67;;;7.70;99.90;;;;;;5053019;28;20164;-77
2021/12/18 08:54:24;;;;;;;40.73;17.07;;;7.70;99.90;;;;;;5034930;28;20179;-77
2021/12/18 08:56:50;;;;;;;43.07;16.63;;;7.70;99.90;;;;;;5052692;28;20281;-77
2021/12/18 08:59:15;;;;;;;40.67;16.87;;;7.70;99.90;;;;;;5035224;28;20180;-77
2021/12/18 09:01:41;;;;;;;44.63;16.63;;;7.70;99.90;;;;;;5052561;28;20182;-77
2021/12/18 09:04:07;;;;;;;39.50;17.40;;;7.70;99.90;;;;;;5052739;28;20218;-76
2021/12/18 09:06:32;;;;;;;41.40;16.83;;;7.70;99.90;;;;;;5052092;28;20643;-77
2021/12/18 09:08:58;;;;;;;41.27;15.93;;;7.70;99.90;;;;;;5034466;28;20172;-77
2021/12/18 09:11:24;;;;;;;41.77;16.30;;;7.70;99.90;;;;;;5052914;28;20203;-77
2021/12/18 09:13:50;;;;;;;43.63;16.77;;;7.70;99.90;;;;;;5053058;28;20697;-77
2021/12/18 09:16:15;;;;;;;42.60;16.27;;;7.80;99.90;;;;;;5052678;28;20294;-77
2021/12/18 09:18:41;;;;;;;40.97;16.23;;;7.80;99.90;;;;;;5052829;28;20215;-77
2021/12/18 09:21:06;;;;;;;43.07;17.60;;;7.80;99.90;;;;;;5038321;28;20180;-77
2021/12/18 09:23:32;;;;;;;37.83;15.60;;;7.80;99.90;;;;;;5055913;28;20696;-77
2021/12/18 09:25:58;;;;;;;52.00;18.17;;;7.80;99.90;;;;;;5055925;28;20222;-77
2021/12/18 09:28:23;;;;;;;43.50;16.93;;;7.80;99.90;;;;;;5038175;28;20187;-77
2021/12/18 09:30:49;;;;;;;50.50;17.30;;;7.80;99.90;;;;;;5038300;28;20183;-77
2021/12/18 09:33:17;;;;;;;44.97;17.23;;;7.80;99.90;;;;;;5055903;28;20195;-77
2021/12/18 09:35:43;;;;;;;53.80;18.97;;;7.80;99.90;;;;;;5056282;28;20195;-77
2021/12/18 09:38:09;;;;;;;41.80;17.23;;;7.80;99.90;;;;;;5055857;28;20207;-77
2021/12/18 09:40:35;;;;;;;42.80;17.73;;;7.80;99.90;;;;;;5037661;28;20199;-77
2021/12/18 09:43:01;;;;;;;45.83;17.73;;;7.80;99.90;;;;;;5055773;28;20184;-77
2021/12/18 09:45:27;;;;;;;43.90;17.27;;;7.80;99.90;;;;;;5055646;28;20754;-77
2021/12/18 09:47:53;;;;;;;42.20;17.57;;;7.80;99.90;;;;;;5055695;28;20179;-77
2021/12/18 09:50:23;;;;;;;41.20;17.70;;;7.80;99.90;;;;;;5055507;28;20194;-77
2021/12/18 09:52:49;;;;;;;49.67;18.97;;;7.80;99.90;;;;;;5037657;28;20669;-77
2021/12/18 09:55:15;;;;;;;48.00;19.37;;;7.80;99.90;;;;;;5055814;28;20175;-77
2021/12/18 09:57:41;;;;;;;48.37;17.90;;;7.80;99.90;;;;;;5055146;28;20186;-77
2021/12/18 10:00:14;;;;;;;56.67;20.17;;;7.80;99.90;;;;;;5055620;28;20206;-77
2021/12/18 10:02:40;;;;;;;54.27;21.07;;;7.80;99.90;;;;;;5037541;28;20322;-77
2021/12/18 10:05:07;;;;;;;47.73;18.60;;;7.80;99.90;;;;;;5055228;28;20214;-77
2021/12/18 10:07:32;;;;;;;53.00;20.73;;;7.80;99.90;;;;;;5037354;28;20735;-77
2021/12/18 10:10:00;;;;;;;54.63;20.13;;;7.90;99.90;;;;;;5055443;28;20238;-77
2021/12/18 10:12:29;;;;;;;50.97;18.27;;;7.90;99.90;;;;;;5054926;28;20700;-77
2021/12/18 10:14:56;;;;;;;51.27;19.40;;;7.90;99.90;;;;;;5054970;28;20184;-77
2021/12/18 10:17:24;;;;;;;52.20;18.67;;;7.90;99.90;;;;;;5055331;28;20206;-77
2021/12/18 10:19:51;;;;;;;53.77;17.83;;;7.90;99.90;;;;;;5037162;28;20191;-77
2021/12/18 10:22:17;;;;;;;45.90;17.83;;;7.90;99.90;;;;;;5054963;28;20180;-77
2021/12/18 10:24:45;;;;;;;46.90;18.03;;;7.80;99.90;;;;;;5054973;28;20237;-78
2021/12/18 10:27:20;;;;;;;46.90;18.57;;;7.90;99.90;;;;;;5054713;28;20611;-77
2021/12/18 10:29:47;;;;;;;43.07;17.57;;;7.90;99.90;;;;;;5054505;28;20175;-77
2021/12/18 10:32:15;;;;;;;47.97;17.57;;;7.90;99.90;;;;;;5054661;28;20180;-77
2021/12/18 10:34:49;;;;;;;49.23;18.90;;;7.90;99.90;;;;;;5036843;28;20558;-77
2021/12/18 10:37:24;;;;;;;46.50;18.30;;;7.90;99.90;;;;;;5054529;28;20198;-77
2021/12/18 10:39:50;;;;;;;57.97;20.40;;;7.90;99.90;;;;;;5036713;28;20237;-77
2021/12/18 10:42:18;;;;;;;58.57;20.17;;;7.90;99.90;;;;;;5036901;28;20187;-77
2021/12/18 10:45:22;;;;;;;48.80;18.47;;;7.90;99.90;;;;;;5054367;28;20180;-77
2021/12/18 10:48:00;;;;;;;52.77;18.27;;;8.00;99.90;;;;;;5054467;28;20222;-78
2021/12/18 10:50:36;;;;;;;50.53;19.90;;;7.90;99.90;;;;;;5054481;28;20175;-77
2021/12/18 10:53:08;;;;;;;51.43;18.53;;;7.90;99.90;;;;;;5036733;28;20304;-78
2021/12/18 10:55:42;;;;;;;47.83;17.27;;;8.00;99.90;;;;;;5054624;28;20195;-78
2021/12/18 10:58:11;;;;;;;57.33;19.30;;;8.00;99.90;;;;;;5054764;28;20509;-78
2021/12/18 11:00:49;;;;;;;51.20;19.07;;;8.00;99.90;;;;;;5054385;28;20361;-78
2021/12/18 11:03:17;;;;;;;56.67;18.20;;;8.00;99.90;;;;;;5036008;28;20244;-78
2021/12/18 11:05:43;;;;;;;54.87;18.73;;;8.00;99.90;;;;;;5054265;28;20230;-78
2021/12/18 11:08:12;;;;;;;54.90;18.63;;;8.00;99.90;;;;;;5054591;28;20604;-78
2021/12/18 11:15:51;;;;;;;50.00;18.43;;;8.00;99.90;;;;;;5034026;28;20707;-78
2021/12/18 11:18:18;;;;;;;48.73;18.13;;;8.00;99.90;;;;;;5016347;28;20191;-77
2021/12/18 11:20:50;;;;;;;53.20;17.30;;;8.00;99.90;;;;;;5016734;28;20191;-77
2021/12/18 11:23:20;;;;;;;41.00;16.30;;;8.00;99.90;;;;;;5034487;28;20199;-78
2021/12/18 11:25:46;;;;;;;50.80;17.43;;;8.00;99.90;;;;;;5034301;28;20219;-78
2021/12/18 11:28:13;;;;;;;55.37;18.63;;;8.10;99.90;;;;;;5034662;28;20184;-77
2021/12/18 11:30:39;;;;;;;61.07;19.90;;;8.10;99.90;;;;;;5016815;28;20559;-78
2021/12/18 11:33:05;;;;;;;55.67;18.60;;;8.10;99.90;;;;;;5034501;28;20263;-78
2021/12/18 11:35:30;;;;;;;52.20;16.90;;;8.00;99.90;;;;;;5034286;28;20271;-78
2021/12/18 11:38:01;;;;;;;51.17;18.80;;;8.00;99.90;;;;;;5016410;28;20207;-78
2021/12/18 11:40:31;;;;;;;56.70;20.47;;;8.00;99.90;;;;;;5016410;28;20191;-78
2021/12/18 11:42:57;;;;;;;48.13;20.80;;;8.00;99.90;;;;;;5016064;28;20176;-78
2021/12/18 11:45:31;;;;;;;47.83;19.77;;;8.00;99.90;;;;;;5033824;28;20183;-77
2021/12/18 11:48:00;;;;;;;53.67;18.57;;;8.00;99.90;;;;;;5016523;28;20206;-78
2021/12/18 11:50:32;;;;;;;47.17;17.67;;;8.00;99.90;;;;;;5034185;28;20588;-78
2021/12/18 11:53:26;;;;;;;39.03;17.37;;;8.00;99.90;;;;;;5017203;28;20180;-77
2021/12/18 11:55:51;;;;;;;49.07;19.67;;;8.00;99.90;;;;;;5034103;28;20204;-77
2021/12/18 11:58:28;;;;;;;38.50;16.90;;;8.00;99.90;;;;;;5017168;28;20275;-77
2021/12/18 12:01:11;;;;;;;43.77;18.40;;;7.90;99.90;;;;;;5034467;28;20168;-77
2021/12/18 12:03:53;;;;;;;50.37;20.47;;;8.00;99.90;;;;;;5016945;28;20184;-77
2021/12/18 12:06:19;;;;;;;46.47;18.37;;;8.00;99.90;;;;;;5034843;28;20540;-77
2021/12/18 12:08:45;;;;;;;48.50;19.57;;;8.00;99.90;;;;;;5034533;28;20175;-77
2021/12/18 12:11:17;;;;;;;50.80;19.83;;;8.00;99.90;;;;;;5034170;28;20176;-77
2021/12/18 12:14:08;;;;;;;65.93;21.53;;;8.00;99.90;;;;;;5016717;28;20217;-77
2021/12/18 12:16:46;;;;;;;62.43;20.33;;;8.00;99.90;;;;;;5017070;28;20204;-77
2021/12/18 12:19:22;;;;;;;66.27;20.33;;;8.00;99.90;;;;;;5034244;28;20188;-77
2021/12/18 12:21:53;;;;;;;55.20;18.87;;;7.90;99.90;;;;;;5034292;28;20166;-77
2021/12/18 12:24:22;;;;;;;54.00;18.67;;;7.90;99.90;;;;;;5016716;28;20279;-77
2021/12/18 12:26:49;;;;;;;59.17;19.93;;;8.00;99.90;;;;;;5072156;23;20234;-79
2021/12/18 12:29:17;;;;;;;59.53;17.77;;;8.00;99.90;;;;;;5056216;28;20179;-78
2021/12/18 12:31:57;;;;;;;55.93;18.10;;;7.90;99.90;;;;;;5083785;28;20179;-78
2021/12/18 12:34:26;;;;;;;43.00;14.67;;;7.90;99.90;;;;;;5071082;28;20179;-78
2021/12/18 12:36:58;;;;;;;38.50;13.67;;;7.90;99.90;;;;;;5062297;28;20281;-78
2021/12/18 12:39:46;;;;;;;42.50;13.03;;;7.90;99.90;;;;;;5058081;28;20167;-78
2021/12/18 12:42:12;;;;;;;42.03;12.67;;;7.90;99.90;;;;;;5057145;28;20185;-79
2021/12/18 12:44:49;;;;;;;33.27;9.90;;;7.90;99.90;;;;;;5076530;28;20213;-78
2021/12/18 12:47:17;;;;;;;28.53;8.60;;;7.80;99.90;;;;;;5056653;28;20265;-78
2021/12/18 12:49:46;;;;;;;27.93;9.10;;;7.90;99.90;;;;;;5074197;28;20176;-78
2021/12/18 12:52:18;;;;;;;28.03;9.10;;;7.80;99.90;;;;;;5073911;28;20180;-77
2021/12/18 12:55:14;;;;;;;29.83;8.73;;;7.80;99.90;;;;;;5076567;28;20155;-78
2021/12/18 12:57:43;;;;;;;21.57;9.13;;;7.80;99.90;;;;;;5077395;28;20205;-78
2021/12/18 13:00:08;;;;;;;23.63;9.10;;;7.80;99.90;;;;;;5078494;28;20206;-78
2021/12/18 13:02:49;;;;;;;23.17;8.67;;;7.70;99.90;;;;;;5077949;28;20179;-78
2021/12/18 13:05:15;;;;;;;20.27;8.77;;;7.70;99.90;;;;;;5077829;28;20166;-78
2021/12/18 13:07:53;;;;;;;30.50;10.93;;;7.70;99.90;;;;;;5060014;28;20581;-78
2021/12/18 13:10:26;;;;;;;27.27;9.43;;;7.70;99.90;;;;;;5078865;28;20166;-78
2021/12/18 13:12:55;;;;;;;34.27;10.87;;;7.70;99.90;;;;;;5079698;28;20165;-79
2021/12/18 13:15:21;;;;;;;31.20;10.37;;;7.70;99.90;;;;;;5078933;28;20179;-79
2021/12/18 13:17:47;;;;;;;33.33;12.03;;;7.70;99.90;;;;;;5078739;28;20211;-78
2021/12/18 13:20:13;;;;;;;35.83;11.23;;;7.70;99.90;;;;;;5079097;28;20177;-79
2021/12/18 13:22:39;;;;;;;31.70;10.97;;;7.70;99.90;;;;;;5061229;28;20268;-78